Terminal Aerodrome Forecast
Issued by NWS

Home | Current Version | Previous Version | Graphics & Text | Print | Product List | Glossary On
Versions: 1 2 3 4 5 6 7 8 9 10 11 12 13 14 15 16 17 18
000
FTUS43 KICT 261723
TAFSLN
TAF
KSLN 261723Z 2618/2718 15012KT P6SM VCSH BKN050
      TEMPO 2619/2621 VRB25G35KT 3SM +TSRA SCT015 OVC040CB
     FM262100 15015G22KT P6SM VCTS BKN040CB
      TEMPO 2623/2703 VRB30G40KT 1SM +TSRA OVC015CB
     FM270600 14007KT P6SM OVC015
      TEMPO 2710/2714 OVC008=

USA.gov is the U.S. government's official web portal to all federal, state and local government web resources and services.